createdAt,value
2022-11-30T00:01:40.590Z,12.35
2022-11-30T00:04:08.198Z,11.52
2022-11-30T00:06:35.554Z,11.18
2022-11-30T00:09:02.912Z,11.02
2022-11-30T00:11:30.992Z,11.30
2022-11-30T00:13:59.696Z,11.32
2022-11-30T00:16:27.595Z,11.02
2022-11-30T00:18:55.300Z,10.43
2022-11-30T00:21:22.613Z,10.90
2022-11-30T00:23:49.986Z,10.40
2022-11-30T00:26:19.309Z,10.63
2022-11-30T00:28:47.672Z,10.18
2022-11-30T00:31:16.821Z,10.55
2022-11-30T00:33:44.720Z,9.48
2022-11-30T00:36:17.818Z,10.50
2022-11-30T00:38:45.889Z,9.40
2022-11-30T00:41:13.720Z,9.82
2022-11-30T00:43:41.217Z,9.70
2022-11-30T00:46:12.006Z,9.20
2022-11-30T00:48:40.083Z,8.90
2022-11-30T00:51:09.504Z,8.95
2022-11-30T00:53:37.487Z,9.25
2022-11-30T00:56:05.558Z,9.50
2022-11-30T00:58:33.135Z,9.00
2022-11-30T01:01:01.033Z,8.75
2022-11-30T01:03:28.363Z,9.00
2022-11-30T01:05:55.712Z,9.23
2022-11-30T01:08:25.614Z,9.52
2022-11-30T01:10:54.698Z,9.23
2022-11-30T01:13:22.400Z,8.45
2022-11-30T01:15:50.104Z,9.38
2022-11-30T01:18:17.536Z,8.93
2022-11-30T01:20:44.871Z,8.90
2022-11-30T01:23:12.486Z,8.43
2022-11-30T01:25:39.880Z,8.70
2022-11-30T01:28:07.281Z,7.97
2022-11-30T01:30:34.948Z,7.80
2022-11-30T01:33:04.104Z,7.43
2022-11-30T01:35:31.457Z,8.57
2022-11-30T01:37:59.149Z,8.18
2022-11-30T01:40:26.471Z,7.20
2022-11-30T01:42:53.848Z,6.68
2022-11-30T01:45:21.549Z,7.12
2022-11-30T01:47:52.465Z,7.45
2022-11-30T01:50:27.289Z,8.00
2022-11-30T01:52:57.062Z,6.75
2022-11-30T01:55:27.452Z,6.28
2022-11-30T01:57:58.094Z,6.28
2022-11-30T02:00:25.412Z,6.80
2022-11-30T02:02:52.970Z,6.60
2022-11-30T02:05:21.253Z,6.87
2022-11-30T02:07:48.703Z,6.97
2022-11-30T02:10:19.674Z,7.68
2022-11-30T02:13:02.472Z,6.60
2022-11-30T02:15:36.372Z,6.43
2022-11-30T02:18:12.783Z,8.15
2022-11-30T02:20:58.102Z,7.55
2022-11-30T02:23:43.327Z,7.53
2022-11-30T02:29:07.681Z,6.80
2022-11-30T02:32:08.734Z,7.35
2022-11-30T02:34:37.545Z,8.60
2022-11-30T02:37:06.034Z,7.82
2022-11-30T02:39:33.405Z,9.90
2022-11-30T02:42:00.991Z,8.68
2022-11-30T02:44:28.489Z,6.93
2022-11-30T02:47:14.610Z,7.22
2022-11-30T02:50:04.907Z,6.15
2022-11-30T02:52:32.313Z,7.00
2022-11-30T02:55:01.787Z,7.12
2022-11-30T02:57:29.135Z,7.55
2022-11-30T02:59:57.077Z,6.65
2022-11-30T03:02:24.737Z,6.55
2022-11-30T03:04:52.115Z,6.97
2022-11-30T03:07:19.504Z,6.15
2022-11-30T03:09:47.151Z,6.45
2022-11-30T03:12:14.484Z,6.22
2022-11-30T03:14:41.902Z,5.93
2022-11-30T03:17:09.506Z,5.97
2022-11-30T03:19:36.847Z,6.15
2022-11-30T03:22:04.341Z,6.40
2022-11-30T03:24:31.997Z,5.50
2022-11-30T03:26:59.703Z,5.55
2022-11-30T03:29:27.188Z,7.07
2022-11-30T03:31:54.796Z,7.18
2022-11-30T03:34:22.820Z,7.40
2022-11-30T03:36:50.156Z,7.85
2022-11-30T03:39:17.743Z,7.47
2022-11-30T03:41:45.060Z,8.38
2022-11-30T03:44:12.379Z,8.27
2022-11-30T03:46:40.049Z,8.05
2022-11-30T03:49:07.453Z,8.63
2022-11-30T03:51:35.486Z,7.78
2022-11-30T03:54:03.119Z,7.87
2022-11-30T03:56:30.502Z,8.25
2022-11-30T03:58:57.858Z,7.80
2022-11-30T04:01:25.881Z,7.18
2022-11-30T04:03:54.322Z,7.60
2022-11-30T04:06:22.390Z,7.62
2022-11-30T04:08:50.075Z,8.32
2022-11-30T04:11:17.784Z,7.18
2022-11-30T04:13:45.616Z,8.02
2022-11-30T04:16:13.029Z,7.97
2022-11-30T04:18:40.664Z,7.22
2022-11-30T04:21:13.751Z,7.47
2022-11-30T04:23:41.393Z,6.30
2022-11-30T04:26:12.287Z,7.32
2022-11-30T04:28:39.877Z,7.05
2022-11-30T04:31:07.618Z,6.75
2022-11-30T04:33:35.076Z,6.93
2022-11-30T04:36:04.833Z,6.75
2022-11-30T04:38:32.973Z,6.05
2022-11-30T04:41:00.347Z,5.68
2022-11-30T04:43:27.717Z,6.32
2022-11-30T04:45:55.333Z,7.20
2022-11-30T04:48:22.651Z,6.50
2022-11-30T04:50:49.978Z,6.53
2022-11-30T04:53:17.663Z,6.20
2022-11-30T04:55:44.998Z,5.97
2022-11-30T04:58:12.333Z,6.18
2022-11-30T05:00:39.898Z,6.43
2022-11-30T05:03:07.210Z,6.40
2022-11-30T05:05:34.593Z,6.05
2022-11-30T05:08:02.256Z,6.10
2022-11-30T05:10:30.414Z,6.30
2022-11-30T05:12:57.837Z,5.82
2022-11-30T05:15:25.888Z,4.82
2022-11-30T05:17:53.206Z,5.05
2022-11-30T05:20:20.652Z,5.60
2022-11-30T05:22:48.919Z,6.12
2022-11-30T05:25:16.462Z,5.62
2022-11-30T05:27:43.909Z,5.78
2022-11-30T05:30:12.067Z,5.53
2022-11-30T05:32:39.373Z,6.03
2022-11-30T05:35:06.938Z,6.20
2022-11-30T05:37:34.590Z,6.00
2022-11-30T05:40:01.937Z,7.37
2022-11-30T05:42:29.398Z,6.22
2022-11-30T05:44:57.039Z,6.55
2022-11-30T05:47:24.365Z,6.57
2022-11-30T05:49:51.700Z,7.07
2022-11-30T05:52:19.520Z,7.10
2022-11-30T05:54:47.022Z,6.72
2022-11-30T05:57:14.735Z,6.40
2022-11-30T05:59:42.339Z,6.00
2022-11-30T06:02:09.766Z,7.03
2022-11-30T06:04:37.688Z,6.93
2022-11-30T06:07:05.063Z,6.03
2022-11-30T06:09:32.766Z,7.53
2022-11-30T06:12:00.331Z,6.45
2022-11-30T06:14:27.691Z,6.10
2022-11-30T06:16:55.163Z,6.18
2022-11-30T06:19:22.782Z,5.65
2022-11-30T06:21:50.308Z,7.25
2022-11-30T06:24:17.742Z,8.75
2022-11-30T06:26:45.358Z,9.05
2022-11-30T06:29:12.781Z,8.52
2022-11-30T06:31:40.192Z,9.88
2022-11-30T06:34:07.758Z,8.07
2022-11-30T06:36:36.439Z,7.07
2022-11-30T06:39:04.469Z,8.18
2022-11-30T06:41:32.213Z,7.25
2022-11-30T06:43:59.628Z,7.75
2022-11-30T06:46:27.790Z,7.30
2022-11-30T06:48:55.572Z,6.78
2022-11-30T06:51:22.898Z,6.97
2022-11-30T06:53:50.236Z,8.23
2022-11-30T06:56:17.965Z,6.60
2022-11-30T06:58:45.275Z,6.57
2022-11-30T07:01:15.222Z,7.55
2022-11-30T07:03:43.580Z,6.50
2022-11-30T07:06:12.573Z,7.35
2022-11-30T07:08:42.262Z,6.90
2022-11-30T07:11:10.860Z,6.72
2022-11-30T07:13:38.329Z,6.78
2022-11-30T07:16:07.351Z,6.45
2022-11-30T07:18:35.295Z,7.00
2022-11-30T07:21:04.231Z,7.10
2022-11-30T07:24:07.506Z,6.93
2022-11-30T07:26:35.609Z,6.53
2022-11-30T07:29:05.244Z,6.25
2022-11-30T07:31:34.600Z,7.28
2022-11-30T07:34:07.675Z,6.82
2022-11-30T07:36:35.798Z,5.12
2022-11-30T07:39:04.145Z,5.35
2022-11-30T07:41:31.482Z,4.80
2022-11-30T07:44:01.149Z,4.60
2022-11-30T07:46:28.732Z,4.72
2022-11-30T07:48:56.044Z,5.15
2022-11-30T07:51:23.380Z,5.30
2022-11-30T07:53:51.312Z,5.20
2022-11-30T07:56:20.128Z,5.47
2022-11-30T07:58:48.364Z,4.82
2022-11-30T08:01:19.177Z,5.00
2022-11-30T08:03:46.881Z,4.90
2022-11-30T08:06:22.064Z,5.25
2022-11-30T08:08:51.218Z,4.70
2022-11-30T08:11:21.802Z,4.47
2022-11-30T08:13:49.403Z,3.80
2022-11-30T08:16:27.981Z,4.72
2022-11-30T08:18:57.085Z,6.72
2022-11-30T08:21:24.875Z,5.75
2022-11-30T08:23:56.065Z,8.57
2022-11-30T08:26:26.217Z,7.82
2022-11-30T08:28:53.919Z,5.22
2022-11-30T08:31:27.276Z,6.10
2022-11-30T08:34:06.526Z,12.27
2022-11-30T08:36:34.478Z,5.65
2022-11-30T08:39:05.020Z,19.30
2022-11-30T08:41:34.977Z,10.02
2022-11-30T08:44:02.895Z,15.95
2022-11-30T08:49:23.569Z,3.22
2022-11-30T08:52:16.936Z,5.22
2022-11-30T08:57:33.366Z,18.12
2022-11-30T09:00:00.962Z,8.20
2022-11-30T09:02:28.353Z,3.83
2022-11-30T09:04:55.819Z,2.97
2022-11-30T09:07:23.442Z,2.87
2022-11-30T09:09:50.845Z,3.58
2022-11-30T09:12:18.397Z,3.55
2022-11-30T09:14:53.940Z,3.40
2022-11-30T09:17:24.933Z,3.85
2022-11-30T09:19:52.679Z,3.40
2022-11-30T09:22:20.145Z,3.55
2022-11-30T09:24:47.646Z,3.20
2022-11-30T09:27:15.649Z,3.62
2022-11-30T09:29:42.977Z,3.10
2022-11-30T09:32:10.304Z,3.85
2022-11-30T09:34:38.472Z,3.85
2022-11-30T09:37:05.842Z,4.00
2022-11-30T09:39:33.155Z,3.87
2022-11-30T09:42:22.048Z,3.85
2022-11-30T09:45:15.812Z,3.25
2022-11-30T09:47:57.469Z,3.45
2022-11-30T09:50:28.186Z,3.92
2022-11-30T09:52:58.843Z,3.65
2022-11-30T09:55:39.427Z,3.60
2022-11-30T09:58:07.596Z,4.47
2022-11-30T10:00:35.200Z,4.15
2022-11-30T10:03:04.733Z,3.95
2022-11-30T10:05:46.096Z,4.60
2022-11-30T10:08:27.256Z,4.32
2022-11-30T10:11:14.648Z,3.97
2022-11-30T10:13:42.154Z,4.30
2022-11-30T10:16:20.708Z,4.28
2022-11-30T10:19:01.076Z,8.05
2022-11-30T10:22:02.591Z,5.55
2022-11-30T10:24:39.098Z,4.65
2022-11-30T10:27:46.020Z,5.00
2022-11-30T10:30:22.217Z,9.00
2022-11-30T10:32:58.752Z,5.62
2022-11-30T10:35:39.150Z,6.80
2022-11-30T10:38:27.919Z,5.32
2022-11-30T10:41:01.474Z,4.85
2022-11-30T10:43:38.756Z,4.78
2022-11-30T10:46:06.493Z,5.68
2022-11-30T10:49:02.704Z,4.97
2022-11-30T10:51:31.016Z,4.68
2022-11-30T10:53:58.673Z,5.90
2022-11-30T10:56:26.083Z,5.50
2022-11-30T10:59:17.284Z,4.95
2022-11-30T11:01:44.737Z,4.72
2022-11-30T11:04:12.390Z,4.75
2022-11-30T11:06:43.535Z,5.10
2022-11-30T11:09:49.137Z,5.65
2022-11-30T11:15:23.419Z,4.85
2022-11-30T11:17:52.243Z,4.15
2022-11-30T11:20:35.636Z,4.75
2022-11-30T11:23:04.309Z,5.95
2022-11-30T11:25:34.655Z,6.00
2022-11-30T11:28:14.692Z,5.37
2022-11-30T11:30:42.509Z,5.80
2022-11-30T11:33:13.237Z,5.40
2022-11-30T11:35:49.464Z,6.25
2022-11-30T11:38:47.312Z,4.97
2022-11-30T11:41:31.418Z,6.18
2022-11-30T11:44:23.022Z,5.75
2022-11-30T11:46:57.338Z,5.03
2022-11-30T11:49:27.941Z,4.72
2022-11-30T11:52:02.245Z,4.75
2022-11-30T11:54:55.438Z,5.00
2022-11-30T11:57:40.461Z,4.55
2022-11-30T12:00:19.073Z,4.72
2022-11-30T12:03:18.979Z,5.30
2022-11-30T12:05:50.343Z,4.85
2022-11-30T12:08:39.923Z,5.25
2022-11-30T12:11:25.065Z,4.55
2022-11-30T12:13:53.749Z,4.90
2022-11-30T12:16:40.608Z,5.47
2022-11-30T12:19:14.287Z,4.87
2022-11-30T12:22:06.369Z,5.45
2022-11-30T12:25:02.758Z,6.10
2022-11-30T12:27:50.429Z,9.30
2022-11-30T12:30:26.106Z,8.27
2022-11-30T12:33:35.051Z,6.70
2022-11-30T12:36:05.909Z,5.07
2022-11-30T12:38:50.297Z,5.47
2022-11-30T12:41:33.116Z,5.15
2022-11-30T12:44:23.374Z,5.72
2022-11-30T12:47:18.432Z,5.35
2022-11-30T12:49:48.789Z,5.57
2022-11-30T12:52:37.305Z,6.03
2022-11-30T12:55:35.372Z,5.93
2022-11-30T12:58:27.818Z,5.85
2022-11-30T13:01:08.878Z,6.32
2022-11-30T13:03:45.402Z,5.78
2022-11-30T13:06:18.504Z,6.07
2022-11-30T13:09:21.556Z,5.93
2022-11-30T13:11:53.899Z,6.18
2022-11-30T13:14:23.289Z,5.87
2022-11-30T13:16:58.278Z,5.50
2022-11-30T13:19:42.920Z,5.90
2022-11-30T13:22:37.941Z,5.95
2022-11-30T13:26:06.357Z,5.55
2022-11-30T13:28:42.518Z,6.07
2022-11-30T13:31:34.129Z,6.03
2022-11-30T13:34:02.045Z,5.93
2022-11-30T13:36:45.400Z,6.10
2022-11-30T13:39:16.369Z,6.20
2022-11-30T13:41:46.437Z,5.80
2022-11-30T13:44:32.437Z,5.07
2022-11-30T13:47:30.535Z,5.60
2022-11-30T13:50:06.990Z,5.55
2022-11-30T13:53:02.619Z,5.15
2022-11-30T13:55:35.894Z,4.65
2022-11-30T13:58:07.497Z,5.20
2022-11-30T14:00:34.745Z,5.47
2022-11-30T14:03:20.416Z,11.38
2022-11-30T14:05:53.976Z,7.78
2022-11-30T14:08:21.410Z,3.75
2022-11-30T14:10:53.292Z,4.25
2022-11-30T14:13:23.490Z,4.72
2022-11-30T14:15:52.820Z,4.78
2022-11-30T14:18:20.203Z,4.22
2022-11-30T14:20:51.884Z,5.85
2022-11-30T14:23:40.598Z,5.45
2022-11-30T14:26:13.519Z,3.20
2022-11-30T14:29:02.508Z,3.50
2022-11-30T14:31:48.051Z,3.58
2022-11-30T14:34:19.057Z,3.40
2022-11-30T14:36:50.839Z,4.28
2022-11-30T14:39:31.679Z,3.58
2022-11-30T14:41:59.674Z,4.32
2022-11-30T14:44:27.885Z,2.95
2022-11-30T14:46:55.241Z,3.92
2022-11-30T14:49:24.098Z,3.53
2022-11-30T14:52:02.214Z,3.45
2022-11-30T14:54:42.052Z,3.47
2022-11-30T14:57:20.319Z,3.55
2022-11-30T14:59:51.609Z,8.50
2022-11-30T15:02:34.234Z,7.25
2022-11-30T15:05:01.885Z,6.97
2022-11-30T15:07:29.820Z,3.90
2022-11-30T15:10:04.925Z,4.03
2022-11-30T15:12:33.480Z,3.45
2022-11-30T15:15:07.139Z,3.53
2022-11-30T15:17:45.708Z,3.33
2022-11-30T15:20:24.447Z,4.45
2022-11-30T15:22:53.954Z,4.03
2022-11-30T15:25:21.963Z,3.37
2022-11-30T15:27:49.423Z,3.90
2022-11-30T15:30:17.860Z,5.07
2022-11-30T15:32:46.927Z,9.15
2022-11-30T15:35:22.994Z,3.92
2022-11-30T15:37:51.113Z,3.40
2022-11-30T15:40:33.160Z,4.72
2022-11-30T15:43:01.910Z,3.33
2022-11-30T15:45:32.797Z,3.12
2022-11-30T15:48:00.990Z,3.83
2022-11-30T15:50:28.563Z,3.90
2022-11-30T15:52:57.632Z,3.47
2022-11-30T15:55:43.172Z,4.05
2022-11-30T15:58:35.019Z,3.80
2022-11-30T16:01:24.845Z,4.28
2022-11-30T16:03:55.551Z,3.35
2022-11-30T16:06:24.327Z,3.00
2022-11-30T16:08:51.986Z,17.87
2022-11-30T16:11:19.759Z,5.32
2022-11-30T16:13:47.448Z,5.00
2022-11-30T16:16:21.885Z,6.03
2022-11-30T16:18:50.419Z,4.70
2022-11-30T16:21:18.983Z,5.87
2022-11-30T16:23:47.899Z,5.87
2022-11-30T16:29:05.767Z,4.25
2022-11-30T16:31:34.504Z,6.55
2022-11-30T16:34:01.838Z,7.07
2022-11-30T16:36:30.699Z,3.92
2022-11-30T16:38:58.440Z,5.07
2022-11-30T16:41:28.887Z,12.27
2022-11-30T16:43:57.670Z,381.40
2022-11-30T16:46:28.189Z,151.60
2022-11-30T16:48:57.067Z,67.15
2022-11-30T16:51:34.568Z,113.60
2022-11-30T16:54:02.063Z,107.68
2022-11-30T16:56:30.150Z,45.85
2022-11-30T16:58:57.528Z,58.75
2022-11-30T17:01:37.452Z,22.23
2022-11-30T17:04:26.604Z,21.77
2022-11-30T17:07:00.540Z,20.27
2022-11-30T17:09:30.625Z,31.92
2022-11-30T17:11:58.427Z,16.45
2022-11-30T17:14:26.682Z,14.38
2022-11-30T17:16:54.588Z,19.83
2022-11-30T17:19:23.022Z,13.68
2022-11-30T17:21:51.275Z,12.55
2022-11-30T17:24:19.431Z,46.58
2022-11-30T17:26:47.423Z,46.13
2022-11-30T17:29:15.385Z,21.42
2022-11-30T17:31:43.151Z,14.27
2022-11-30T17:34:10.723Z,12.52
2022-11-30T17:36:38.691Z,14.93
2022-11-30T17:39:07.797Z,11.77
2022-11-30T17:41:35.384Z,31.27
2022-11-30T17:44:03.193Z,55.72
2022-11-30T17:46:31.066Z,17.52
2022-11-30T17:48:58.917Z,16.27
2022-11-30T17:51:26.744Z,18.37
2022-11-30T17:53:54.870Z,15.80
2022-11-30T17:56:22.599Z,13.07
2022-11-30T17:58:50.387Z,13.62
2022-11-30T18:01:25.473Z,17.85
2022-11-30T18:03:54.238Z,19.27
2022-11-30T18:06:22.216Z,23.02
2022-11-30T18:08:49.983Z,18.77
2022-11-30T18:11:20.787Z,17.37
2022-11-30T18:13:51.993Z,16.05
2022-11-30T18:16:24.643Z,15.93
2022-11-30T18:18:53.321Z,14.90
2022-11-30T18:21:22.668Z,15.85
2022-11-30T18:23:51.191Z,15.85
2022-11-30T18:26:20.798Z,14.27
2022-11-30T18:28:57.855Z,14.32
2022-11-30T18:31:26.332Z,15.75
2022-11-30T18:33:58.921Z,21.08
2022-11-30T18:36:27.080Z,21.85
2022-11-30T18:38:55.499Z,25.25
2022-11-30T18:41:26.480Z,30.12
2022-11-30T18:43:55.122Z,30.20
2022-11-30T18:46:23.841Z,30.40
2022-11-30T18:48:55.396Z,29.52
2022-11-30T18:51:28.301Z,28.48
2022-11-30T18:54:01.829Z,27.13
2022-11-30T18:56:32.501Z,24.70
2022-11-30T18:59:02.778Z,22.58
2022-11-30T19:01:31.319Z,20.62
2022-11-30T19:04:02.519Z,19.80
2022-11-30T19:06:33.217Z,19.27
2022-11-30T19:09:03.912Z,22.95
2022-11-30T19:11:35.429Z,15.00
2022-11-30T19:14:04.162Z,24.55
2022-11-30T19:16:35.397Z,31.95
2022-11-30T19:19:05.939Z,39.42
2022-11-30T19:21:34.625Z,47.90
2022-11-30T19:24:02.541Z,36.65
2022-11-30T19:26:30.176Z,37.40
2022-11-30T19:28:59.341Z,38.30
2022-11-30T19:31:30.022Z,37.50
2022-11-30T19:33:58.390Z,38.08
2022-11-30T19:36:27.827Z,40.38
2022-11-30T19:38:56.773Z,40.08
2022-11-30T19:41:25.284Z,45.42
2022-11-30T19:44:03.879Z,47.47
2022-11-30T19:46:33.564Z,50.80
2022-11-30T19:49:02.045Z,45.10
2022-11-30T19:51:31.200Z,29.08
2022-11-30T19:54:10.738Z,31.75
2022-11-30T19:56:44.702Z,34.60
2022-11-30T19:59:12.999Z,42.97
2022-11-30T20:01:41.045Z,45.75
2022-11-30T20:04:09.703Z,54.50
2022-11-30T20:06:38.942Z,47.47
2022-11-30T20:09:08.100Z,46.72
2022-11-30T20:11:36.745Z,42.20
2022-11-30T20:14:04.940Z,42.20
2022-11-30T20:16:33.045Z,46.37
2022-11-30T20:19:02.344Z,42.90
2022-11-30T20:21:32.919Z,40.90
2022-11-30T20:24:04.822Z,44.88
2022-11-30T20:26:43.231Z,44.45
2022-11-30T20:29:16.363Z,45.10
2022-11-30T20:31:46.944Z,44.97
2022-11-30T20:34:16.432Z,43.97
2022-11-30T20:36:44.332Z,43.10
2022-11-30T20:39:12.201Z,42.22
2022-11-30T20:41:42.673Z,35.97
2022-11-30T20:44:15.432Z,35.90
2022-11-30T20:46:45.400Z,36.30
2022-11-30T20:49:18.912Z,40.20
2022-11-30T20:51:47.647Z,36.92
2022-11-30T20:54:18.047Z,40.05
2022-11-30T20:56:48.865Z,40.40
2022-11-30T20:59:23.731Z,41.58
2022-11-30T21:01:51.885Z,101.07
2022-11-30T21:04:21.789Z,97.55
2022-11-30T21:06:49.448Z,93.70
2022-11-30T21:09:18.217Z,105.70
2022-11-30T21:11:46.684Z,119.37
2022-11-30T21:14:14.778Z,123.07
2022-11-30T21:16:42.566Z,34.90
2022-11-30T21:19:11.790Z,44.97
2022-11-30T21:21:39.124Z,49.03
2022-11-30T21:24:08.624Z,55.80
2022-11-30T21:26:39.052Z,45.60
2022-11-30T21:29:14.561Z,135.57
2022-11-30T21:31:42.750Z,38.28
2022-11-30T21:34:10.368Z,48.70
2022-11-30T21:36:37.712Z,52.97
2022-11-30T21:39:09.052Z,39.05
2022-11-30T21:41:37.962Z,29.95
2022-11-30T21:44:07.144Z,31.95
2022-11-30T21:46:34.585Z,28.70
2022-11-30T21:49:02.212Z,39.58
2022-11-30T21:51:31.795Z,40.00
2022-11-30T21:54:01.431Z,30.25
2022-11-30T21:56:31.199Z,25.15
2022-11-30T21:58:59.149Z,21.80
2022-11-30T22:01:29.256Z,18.15
2022-11-30T22:04:01.190Z,17.50
2022-11-30T22:06:29.676Z,16.92
2022-11-30T22:09:03.403Z,14.43
2022-11-30T22:11:31.252Z,13.15
2022-11-30T22:13:58.993Z,12.70
2022-11-30T22:16:32.425Z,12.43
2022-11-30T22:19:06.077Z,12.13
2022-11-30T22:21:33.918Z,12.85
2022-11-30T22:24:06.319Z,12.37
2022-11-30T22:26:35.910Z,12.13
2022-11-30T22:29:14.169Z,12.48
2022-11-30T22:31:44.145Z,12.73
2022-11-30T22:34:11.838Z,12.68
2022-11-30T22:36:41.184Z,14.27
2022-11-30T22:39:14.753Z,12.88
2022-11-30T22:41:43.124Z,14.15
2022-11-30T22:44:14.915Z,13.45
2022-11-30T22:46:44.038Z,13.57
2022-11-30T22:49:19.843Z,13.48
2022-11-30T22:51:49.031Z,12.75
2022-11-30T22:54:16.898Z,13.43
2022-11-30T22:56:46.455Z,13.73
2022-11-30T22:59:15.017Z,14.02
2022-11-30T23:01:47.374Z,15.45
2022-11-30T23:04:17.009Z,14.93
2022-11-30T23:06:45.475Z,14.15
2022-11-30T23:09:15.377Z,13.45
2022-11-30T23:11:42.742Z,12.80
2022-11-30T23:14:12.094Z,13.48
2022-11-30T23:16:39.823Z,13.25
2022-11-30T23:19:08.004Z,13.10
2022-11-30T23:21:41.505Z,12.40
2022-11-30T23:24:13.677Z,11.70
2022-11-30T23:26:41.737Z,11.65
2022-11-30T23:29:11.753Z,12.05
2022-11-30T23:31:40.296Z,12.45
2022-11-30T23:34:19.280Z,12.77
2022-11-30T23:36:48.398Z,11.48
2022-11-30T23:39:18.229Z,11.40
2022-11-30T23:41:45.948Z,11.43
2022-11-30T23:44:13.461Z,10.85
2022-11-30T23:46:41.149Z,11.52
2022-11-30T23:49:08.609Z,11.80
2022-11-30T23:51:35.998Z,10.25
2022-11-30T23:54:03.754Z,10.23
2022-11-30T23:56:31.134Z,10.27
2022-11-30T23:58:58.484Z,10.23
